Kane, Illinois
Current Conditions -  °F | °C
As of 10:54 PM on Friday 24 Oct 2014 (Local Time) from KSET Reporting Station
Clear Clear  
Wind Chill: 56°   Ceiling: Unl
Heat Index: 56°   Visibility: 10mi
Dew Point: 53°   Wind: 0mph
Humidity: 90%   Direction: NA
Pressure: 29.99"   Gusts: NA
Location:  39.19°N, 90.35°W
Report Text: KSET 250354Z AUTO 00000KT 10SM CLR 13/12 A2999 RMK AO2 SLP153 T01330117
Loading
Personal Weather Stations






























Interactive Weather Map
Tropical Storm Tracking
New forecast layout! Learn more

10-Day Weather Forecast

Advertisements
Track Severe Weather on mobile